sensor_id;sensor_type;location;lat;lon;timestamp;P1;durP1;ratioP1;P2;durP2;ratioP2
61915;SDS011;47868;51.326;6.550;2022-09-24T00:00:36;18.23;;;12.75;;
61915;SDS011;47868;51.326;6.550;2022-09-24T00:03:02;15.73;;;13.00;;
61915;SDS011;47868;51.326;6.550;2022-09-24T00:05:28;15.82;;;13.07;;
61915;SDS011;47868;51.326;6.550;2022-09-24T00:07:53;13.68;;;12.23;;
61915;SDS011;47868;51.326;6.550;2022-09-24T00:10:19;15.50;;;12.85;;
61915;SDS011;47868;51.326;6.550;2022-09-24T00:12:45;16.30;;;12.40;;
61915;SDS011;47868;51.326;6.550;2022-09-24T00:15:12;13.90;;;12.40;;
61915;SDS011;47868;51.326;6.550;2022-09-24T00:17:37;18.80;;;13.60;;
61915;SDS011;47868;51.326;6.550;2022-09-24T00:20:03;19.55;;;12.70;;
61915;SDS011;47868;51.326;6.550;2022-09-24T00:22:31;16.50;;;12.68;;
61915;SDS011;47868;51.326;6.550;2022-09-24T00:24:57;14.55;;;12.60;;
61915;SDS011;47868;51.326;6.550;2022-09-24T00:27:41;16.20;;;12.63;;
61915;SDS011;47868;51.326;6.550;2022-09-24T00:30:07;14.07;;;12.63;;
61915;SDS011;47868;51.326;6.550;2022-09-24T00:32:32;14.02;;;12.65;;
61915;SDS011;47868;51.326;6.550;2022-09-24T00:34:58;13.57;;;12.10;;
61915;SDS011;47868;51.326;6.550;2022-09-24T00:37:24;17.15;;;12.73;;
61915;SDS011;47868;51.326;6.550;2022-09-24T00:39:49;12.73;;;11.48;;
61915;SDS011;47868;51.326;6.550;2022-09-24T00:42:17;16.25;;;13.43;;
61915;SDS011;47868;51.326;6.550;2022-09-24T00:49:50;13.35;;;12.00;;
61915;SDS011;47868;51.326;6.550;2022-09-24T00:52:16;14.45;;;12.93;;
61915;SDS011;47868;51.326;6.550;2022-09-24T00:54:43;14.43;;;12.55;;
61915;SDS011;47868;51.326;6.550;2022-09-24T00:57:09;15.82;;;13.43;;
61915;SDS011;47868;51.326;6.550;2022-09-24T00:59:36;13.95;;;12.52;;
61915;SDS011;47868;51.326;6.550;2022-09-24T01:02:02;15.07;;;12.60;;
61915;SDS011;47868;51.326;6.550;2022-09-24T01:04:28;14.52;;;12.38;;
61915;SDS011;47868;51.326;6.550;2022-09-24T01:06:54;13.93;;;12.40;;
61915;SDS011;47868;51.326;6.550;2022-09-24T01:09:21;15.18;;;12.45;;
61915;SDS011;47868;51.326;6.550;2022-09-24T01:11:54;16.15;;;12.68;;
61915;SDS011;47868;51.326;6.550;2022-09-24T01:22:15;18.08;;;13.18;;
61915;SDS011;47868;51.326;6.550;2022-09-24T01:30:10;14.40;;;12.90;;
61915;SDS011;47868;51.326;6.550;2022-09-24T01:32:40;14.23;;;12.50;;
61915;SDS011;47868;51.326;6.550;2022-09-24T01:35:22;13.98;;;12.55;;
61915;SDS011;47868;51.326;6.550;2022-09-24T01:38:00;15.95;;;13.50;;
61915;SDS011;47868;51.326;6.550;2022-09-24T01:40:28;15.07;;;13.50;;
61915;SDS011;47868;51.326;6.550;2022-09-24T01:42:55;19.38;;;15.05;;
61915;SDS011;47868;51.326;6.550;2022-09-24T01:45:23;16.27;;;14.13;;
61915;SDS011;47868;51.326;6.550;2022-09-24T01:47:53;19.40;;;14.60;;
61915;SDS011;47868;51.326;6.550;2022-09-24T01:50:19;17.70;;;15.00;;
61915;SDS011;47868;51.326;6.550;2022-09-24T01:52:59;18.52;;;15.05;;
61915;SDS011;47868;51.326;6.550;2022-09-24T01:55:32;16.30;;;14.57;;
61915;SDS011;47868;51.326;6.550;2022-09-24T01:58:09;16.08;;;14.38;;
61915;SDS011;47868;51.326;6.550;2022-09-24T02:00:39;18.27;;;14.52;;
61915;SDS011;47868;51.326;6.550;2022-09-24T02:03:11;16.90;;;13.88;;
61915;SDS011;47868;51.326;6.550;2022-09-24T02:06:13;15.40;;;13.80;;
61915;SDS011;47868;51.326;6.550;2022-09-24T02:08:55;17.65;;;14.95;;
61915;SDS011;47868;51.326;6.550;2022-09-24T02:11:22;17.13;;;15.40;;
61915;SDS011;47868;51.326;6.550;2022-09-24T02:16:14;17.05;;;15.13;;
61915;SDS011;47868;51.326;6.550;2022-09-24T02:18:45;18.23;;;16.40;;
61915;SDS011;47868;51.326;6.550;2022-09-24T02:21:14;20.83;;;14.90;;
61915;SDS011;47868;51.326;6.550;2022-09-24T02:23:44;17.80;;;15.70;;
61915;SDS011;47868;51.326;6.550;2022-09-24T02:26:14;16.05;;;14.48;;
61915;SDS011;47868;51.326;6.550;2022-09-24T02:28:40;15.30;;;13.70;;
61915;SDS011;47868;51.326;6.550;2022-09-24T02:31:07;15.48;;;13.85;;
61915;SDS011;47868;51.326;6.550;2022-09-24T02:33:41;15.60;;;14.00;;
61915;SDS011;47868;51.326;6.550;2022-09-24T02:36:29;17.35;;;14.70;;
61915;SDS011;47868;51.326;6.550;2022-09-24T02:38:55;15.88;;;13.80;;
61915;SDS011;47868;51.326;6.550;2022-09-24T02:41:21;18.23;;;14.38;;
61915;SDS011;47868;51.326;6.550;2022-09-24T02:43:49;16.25;;;14.65;;
61915;SDS011;47868;51.326;6.550;2022-09-24T02:46:15;18.25;;;14.68;;
61915;SDS011;47868;51.326;6.550;2022-09-24T02:48:41;16.02;;;14.20;;
61915;SDS011;47868;51.326;6.550;2022-09-24T02:51:07;18.88;;;15.05;;
61915;SDS011;47868;51.326;6.550;2022-09-24T02:53:32;16.80;;;14.10;;
61915;SDS011;47868;51.326;6.550;2022-09-24T02:55:58;16.40;;;14.27;;
61915;SDS011;47868;51.326;6.550;2022-09-24T02:58:25;16.10;;;14.13;;
61915;SDS011;47868;51.326;6.550;2022-09-24T03:00:52;15.82;;;14.25;;
61915;SDS011;47868;51.326;6.550;2022-09-24T03:03:20;15.75;;;13.38;;
61915;SDS011;47868;51.326;6.550;2022-09-24T03:05:47;17.00;;;15.10;;
61915;SDS011;47868;51.326;6.550;2022-09-24T03:08:17;18.05;;;14.73;;
61915;SDS011;47868;51.326;6.550;2022-09-24T03:10:43;17.48;;;14.82;;
61915;SDS011;47868;51.326;6.550;2022-09-24T03:13:09;16.52;;;13.32;;
61915;SDS011;47868;51.326;6.550;2022-09-24T03:15:35;17.10;;;14.70;;
61915;SDS011;47868;51.326;6.550;2022-09-24T03:18:00;17.35;;;14.63;;
61915;SDS011;47868;51.326;6.550;2022-09-24T03:20:27;15.00;;;13.15;;
61915;SDS011;47868;51.326;6.550;2022-09-24T03:22:53;16.20;;;14.40;;
61915;SDS011;47868;51.326;6.550;2022-09-24T03:25:19;16.88;;;14.55;;
61915;SDS011;47868;51.326;6.550;2022-09-24T03:27:45;15.63;;;13.82;;
61915;SDS011;47868;51.326;6.550;2022-09-24T03:30:11;26.20;;;14.68;;
61915;SDS011;47868;51.326;6.550;2022-09-24T03:32:56;14.77;;;13.10;;
61915;SDS011;47868;51.326;6.550;2022-09-24T03:35:22;16.83;;;15.02;;
61915;SDS011;47868;51.326;6.550;2022-09-24T03:37:48;18.45;;;14.15;;
61915;SDS011;47868;51.326;6.550;2022-09-24T03:40:13;15.90;;;14.02;;
61915;SDS011;47868;51.326;6.550;2022-09-24T03:42:39;20.38;;;15.23;;
61915;SDS011;47868;51.326;6.550;2022-09-24T03:45:05;19.67;;;15.02;;
61915;SDS011;47868;51.326;6.550;2022-09-24T03:47:31;18.67;;;15.10;;
61915;SDS011;47868;51.326;6.550;2022-09-24T03:49:57;17.15;;;15.35;;
61915;SDS011;47868;51.326;6.550;2022-09-24T03:52:23;17.08;;;14.70;;
61915;SDS011;47868;51.326;6.550;2022-09-24T03:54:50;17.92;;;15.40;;
61915;SDS011;47868;51.326;6.550;2022-09-24T03:57:16;18.30;;;16.50;;
61915;SDS011;47868;51.326;6.550;2022-09-24T03:59:42;18.63;;;15.77;;
61915;SDS011;47868;51.326;6.550;2022-09-24T04:02:09;19.83;;;16.83;;
61915;SDS011;47868;51.326;6.550;2022-09-24T04:04:35;17.05;;;15.25;;
61915;SDS011;47868;51.326;6.550;2022-09-24T04:07:02;23.00;;;17.05;;
61915;SDS011;47868;51.326;6.550;2022-09-24T04:09:28;21.58;;;17.00;;
61915;SDS011;47868;51.326;6.550;2022-09-24T04:11:54;21.80;;;16.38;;
61915;SDS011;47868;51.326;6.550;2022-09-24T04:14:20;18.60;;;16.52;;
61915;SDS011;47868;51.326;6.550;2022-09-24T04:16:45;19.75;;;16.60;;
61915;SDS011;47868;51.326;6.550;2022-09-24T04:19:11;19.23;;;16.52;;
61915;SDS011;47868;51.326;6.550;2022-09-24T04:21:40;21.45;;;17.27;;
61915;SDS011;47868;51.326;6.550;2022-09-24T04:24:06;20.63;;;17.33;;
61915;SDS011;47868;51.326;6.550;2022-09-24T04:26:31;19.65;;;17.23;;
61915;SDS011;47868;51.326;6.550;2022-09-24T04:28:57;22.02;;;17.27;;
61915;SDS011;47868;51.326;6.550;2022-09-24T04:31:23;19.55;;;17.35;;
61915;SDS011;47868;51.326;6.550;2022-09-24T04:33:50;20.13;;;17.92;;
61915;SDS011;47868;51.326;6.550;2022-09-24T04:36:17;22.17;;;17.67;;
61915;SDS011;47868;51.326;6.550;2022-09-24T04:38:42;18.83;;;16.85;;
61915;SDS011;47868;51.326;6.550;2022-09-24T04:41:10;17.75;;;15.70;;
61915;SDS011;47868;51.326;6.550;2022-09-24T04:43:36;19.70;;;17.60;;
61915;SDS011;47868;51.326;6.550;2022-09-24T04:46:02;18.88;;;16.35;;
61915;SDS011;47868;51.326;6.550;2022-09-24T04:48:29;20.35;;;16.73;;
61915;SDS011;47868;51.326;6.550;2022-09-24T04:50:55;20.20;;;16.23;;
61915;SDS011;47868;51.326;6.550;2022-09-24T04:53:21;21.20;;;17.40;;
61915;SDS011;47868;51.326;6.550;2022-09-24T04:55:47;22.73;;;17.38;;
61915;SDS011;47868;51.326;6.550;2022-09-24T04:58:13;19.90;;;17.42;;
61915;SDS011;47868;51.326;6.550;2022-09-24T05:00:38;24.05;;;17.02;;
61915;SDS011;47868;51.326;6.550;2022-09-24T05:03:04;19.90;;;17.80;;
61915;SDS011;47868;51.326;6.550;2022-09-24T05:05:30;20.27;;;16.92;;
61915;SDS011;47868;51.326;6.550;2022-09-24T05:07:57;21.25;;;17.88;;
61915;SDS011;47868;51.326;6.550;2022-09-24T05:10:24;23.02;;;17.90;;
61915;SDS011;47868;51.326;6.550;2022-09-24T05:12:50;21.02;;;17.98;;
61915;SDS011;47868;51.326;6.550;2022-09-24T05:15:16;22.00;;;18.80;;
61915;SDS011;47868;51.326;6.550;2022-09-24T05:17:43;19.92;;;17.75;;
61915;SDS011;47868;51.326;6.550;2022-09-24T05:20:09;21.23;;;18.13;;
61915;SDS011;47868;51.326;6.550;2022-09-24T05:22:39;22.70;;;18.58;;
61915;SDS011;47868;51.326;6.550;2022-09-24T05:25:09;21.70;;;18.17;;
61915;SDS011;47868;51.326;6.550;2022-09-24T05:27:35;21.83;;;19.45;;
61915;SDS011;47868;51.326;6.550;2022-09-24T05:30:01;21.30;;;18.42;;
61915;SDS011;47868;51.326;6.550;2022-09-24T05:32:30;26.63;;;18.45;;
61915;SDS011;47868;51.326;6.550;2022-09-24T05:34:59;24.55;;;18.25;;
61915;SDS011;47868;51.326;6.550;2022-09-24T05:37:25;20.52;;;17.30;;
61915;SDS011;47868;51.326;6.550;2022-09-24T05:39:51;24.92;;;18.73;;
61915;SDS011;47868;51.326;6.550;2022-09-24T05:42:18;21.88;;;18.27;;
61915;SDS011;47868;51.326;6.550;2022-09-24T05:44:43;22.42;;;18.08;;
61915;SDS011;47868;51.326;6.550;2022-09-24T05:47:09;21.90;;;18.75;;
61915;SDS011;47868;51.326;6.550;2022-09-24T05:49:34;22.40;;;18.52;;
61915;SDS011;47868;51.326;6.550;2022-09-24T05:52:00;22.77;;;18.98;;
61915;SDS011;47868;51.326;6.550;2022-09-24T05:54:26;25.77;;;18.40;;
61915;SDS011;47868;51.326;6.550;2022-09-24T05:56:52;25.10;;;18.30;;
61915;SDS011;47868;51.326;6.550;2022-09-24T05:59:17;24.13;;;18.40;;
61915;SDS011;47868;51.326;6.550;2022-09-24T06:01:43;23.75;;;18.73;;
61915;SDS011;47868;51.326;6.550;2022-09-24T06:04:13;23.85;;;20.13;;
61915;SDS011;47868;51.326;6.550;2022-09-24T06:06:38;23.55;;;19.08;;
61915;SDS011;47868;51.326;6.550;2022-09-24T06:09:09;26.23;;;19.10;;
61915;SDS011;47868;51.326;6.550;2022-09-24T06:11:38;26.10;;;19.52;;
61915;SDS011;47868;51.326;6.550;2022-09-24T06:14:04;22.80;;;19.30;;
61915;SDS011;47868;51.326;6.550;2022-09-24T06:16:33;22.27;;;18.60;;
61915;SDS011;47868;51.326;6.550;2022-09-24T06:18:58;26.67;;;18.95;;
61915;SDS011;47868;51.326;6.550;2022-09-24T06:21:24;23.45;;;19.85;;
61915;SDS011;47868;51.326;6.550;2022-09-24T06:23:50;26.35;;;19.98;;
61915;SDS011;47868;51.326;6.550;2022-09-24T06:26:17;25.83;;;19.92;;
61915;SDS011;47868;51.326;6.550;2022-09-24T06:28:42;24.13;;;20.30;;
61915;SDS011;47868;51.326;6.550;2022-09-24T06:31:08;26.15;;;20.92;;
61915;SDS011;47868;51.326;6.550;2022-09-24T06:33:35;25.85;;;20.73;;
61915;SDS011;47868;51.326;6.550;2022-09-24T06:36:02;24.48;;;20.40;;
61915;SDS011;47868;51.326;6.550;2022-09-24T06:38:28;24.60;;;20.27;;
61915;SDS011;47868;51.326;6.550;2022-09-24T06:40:58;22.77;;;20.33;;
61915;SDS011;47868;51.326;6.550;2022-09-24T06:43:26;25.15;;;21.15;;
61915;SDS011;47868;51.326;6.550;2022-09-24T06:45:54;25.92;;;21.25;;
61915;SDS011;47868;51.326;6.550;2022-09-24T06:48:21;26.95;;;20.45;;
61915;SDS011;47868;51.326;6.550;2022-09-24T06:50:47;23.98;;;19.70;;
61915;SDS011;47868;51.326;6.550;2022-09-24T06:53:13;25.33;;;19.77;;
61915;SDS011;47868;51.326;6.550;2022-09-24T06:55:39;23.73;;;18.63;;
61915;SDS011;47868;51.326;6.550;2022-09-24T06:58:09;24.80;;;18.42;;
61915;SDS011;47868;51.326;6.550;2022-09-24T07:00:40;26.15;;;20.50;;
61915;SDS011;47868;51.326;6.550;2022-09-24T07:03:08;21.88;;;17.92;;
61915;SDS011;47868;51.326;6.550;2022-09-24T07:05:37;24.60;;;19.55;;
61915;SDS011;47868;51.326;6.550;2022-09-24T07:08:03;22.13;;;19.33;;
61915;SDS011;47868;51.326;6.550;2022-09-24T07:10:29;21.42;;;18.80;;
61915;SDS011;47868;51.326;6.550;2022-09-24T07:12:54;23.33;;;18.73;;
61915;SDS011;47868;51.326;6.550;2022-09-24T07:15:20;24.80;;;19.50;;
61915;SDS011;47868;51.326;6.550;2022-09-24T07:17:46;28.90;;;18.58;;
61915;SDS011;47868;51.326;6.550;2022-09-24T07:20:11;22.02;;;18.08;;
61915;SDS011;47868;51.326;6.550;2022-09-24T07:22:38;27.33;;;18.17;;
61915;SDS011;47868;51.326;6.550;2022-09-24T07:25:06;22.23;;;18.60;;
61915;SDS011;47868;51.326;6.550;2022-09-24T07:27:33;24.55;;;18.55;;
61915;SDS011;47868;51.326;6.550;2022-09-24T07:29:59;22.33;;;18.02;;
61915;SDS011;47868;51.326;6.550;2022-09-24T07:32:25;22.33;;;19.80;;
61915;SDS011;47868;51.326;6.550;2022-09-24T07:34:50;28.65;;;21.67;;
61915;SDS011;47868;51.326;6.550;2022-09-24T07:37:18;24.88;;;21.83;;
61915;SDS011;47868;51.326;6.550;2022-09-24T07:39:44;26.90;;;21.58;;
61915;SDS011;47868;51.326;6.550;2022-09-24T07:42:09;23.92;;;21.33;;
61915;SDS011;47868;51.326;6.550;2022-09-24T07:44:35;21.45;;;19.25;;
61915;SDS011;47868;51.326;6.550;2022-09-24T07:47:03;26.35;;;19.35;;
61915;SDS011;47868;51.326;6.550;2022-09-24T07:49:30;26.23;;;19.27;;
61915;SDS011;47868;51.326;6.550;2022-09-24T07:51:56;21.05;;;18.35;;
61915;SDS011;47868;51.326;6.550;2022-09-24T07:54:25;27.30;;;18.83;;
61915;SDS011;47868;51.326;6.550;2022-09-24T07:56:53;22.55;;;19.40;;
61915;SDS011;47868;51.326;6.550;2022-09-24T07:59:19;23.92;;;18.40;;
61915;SDS011;47868;51.326;6.550;2022-09-24T08:01:44;22.02;;;18.33;;
61915;SDS011;47868;51.326;6.550;2022-09-24T08:04:10;22.90;;;18.55;;
61915;SDS011;47868;51.326;6.550;2022-09-24T08:06:36;20.65;;;16.85;;
61915;SDS011;47868;51.326;6.550;2022-09-24T08:09:02;23.08;;;17.52;;
61915;SDS011;47868;51.326;6.550;2022-09-24T08:11:28;23.05;;;17.33;;
61915;SDS011;47868;51.326;6.550;2022-09-24T08:13:55;24.75;;;18.00;;
61915;SDS011;47868;51.326;6.550;2022-09-24T08:16:22;21.17;;;18.48;;
61915;SDS011;47868;51.326;6.550;2022-09-24T08:18:48;19.70;;;17.42;;
61915;SDS011;47868;51.326;6.550;2022-09-24T08:21:14;20.33;;;16.27;;
61915;SDS011;47868;51.326;6.550;2022-09-24T08:23:40;20.13;;;16.50;;
61915;SDS011;47868;51.326;6.550;2022-09-24T08:26:07;20.25;;;15.38;;
61915;SDS011;47868;51.326;6.550;2022-09-24T08:28:33;18.02;;;13.40;;
61915;SDS011;47868;51.326;6.550;2022-09-24T08:31:00;16.90;;;13.90;;
61915;SDS011;47868;51.326;6.550;2022-09-24T08:33:28;15.13;;;12.23;;
61915;SDS011;47868;51.326;6.550;2022-09-24T08:35:57;15.48;;;12.43;;
61915;SDS011;47868;51.326;6.550;2022-09-24T08:38:23;17.38;;;13.35;;
61915;SDS011;47868;51.326;6.550;2022-09-24T08:40:55;16.73;;;12.57;;
61915;SDS011;47868;51.326;6.550;2022-09-24T08:46:27;15.18;;;11.80;;
61915;SDS011;47868;51.326;6.550;2022-09-24T08:49:22;15.10;;;11.98;;
61915;SDS011;47868;51.326;6.550;2022-09-24T08:54:59;15.95;;;11.68;;
61915;SDS011;47868;51.326;6.550;2022-09-24T08:57:37;17.25;;;11.40;;
61915;SDS011;47868;51.326;6.550;2022-09-24T09:00:13;13.35;;;10.68;;
61915;SDS011;47868;51.326;6.550;2022-09-24T09:02:48;13.57;;;10.90;;
61915;SDS011;47868;51.326;6.550;2022-09-24T09:05:27;16.20;;;10.75;;
61915;SDS011;47868;51.326;6.550;2022-09-24T09:08:01;11.35;;;8.75;;
61915;SDS011;47868;51.326;6.550;2022-09-24T09:10:31;9.82;;;8.65;;
61915;SDS011;47868;51.326;6.550;2022-09-24T09:15:39;11.57;;;8.68;;
61915;SDS011;47868;51.326;6.550;2022-09-24T09:20:40;9.52;;;8.55;;
61915;SDS011;47868;51.326;6.550;2022-09-24T09:23:50;9.82;;;8.82;;
61915;SDS011;47868;51.326;6.550;2022-09-24T09:26:00;14.48;;;9.88;;
61915;SDS011;47868;51.326;6.550;2022-09-24T09:28:26;11.02;;;8.80;;
61915;SDS011;47868;51.326;6.550;2022-09-24T09:41:51;12.90;;;8.70;;
61915;SDS011;47868;51.326;6.550;2022-09-24T09:44:25;12.23;;;9.60;;
61915;SDS011;47868;51.326;6.550;2022-09-24T09:47:03;12.73;;;9.60;;
61915;SDS011;47868;51.326;6.550;2022-09-24T09:49:52;10.65;;;7.50;;
61915;SDS011;47868;51.326;6.550;2022-09-24T09:52:22;10.10;;;7.88;;
61915;SDS011;47868;51.326;6.550;2022-09-24T09:54:52;8.10;;;7.30;;
61915;SDS011;47868;51.326;6.550;2022-09-24T09:57:19;10.13;;;7.35;;
61915;SDS011;47868;51.326;6.550;2022-09-24T09:59:48;9.20;;;7.47;;
61915;SDS011;47868;51.326;6.550;2022-09-24T10:02:26;9.43;;;7.82;;
61915;SDS011;47868;51.326;6.550;2022-09-24T10:04:56;9.40;;;8.35;;
61915;SDS011;47868;51.326;6.550;2022-09-24T10:07:23;9.35;;;7.93;;
61915;SDS011;47868;51.326;6.550;2022-09-24T10:10:01;8.20;;;6.80;;
61915;SDS011;47868;51.326;6.550;2022-09-24T10:12:40;9.40;;;7.55;;
61915;SDS011;47868;51.326;6.550;2022-09-24T10:15:16;13.38;;;7.93;;
61915;SDS011;47868;51.326;6.550;2022-09-24T10:17:47;8.82;;;7.45;;
61915;SDS011;47868;51.326;6.550;2022-09-24T10:20:21;9.07;;;6.65;;
61915;SDS011;47868;51.326;6.550;2022-09-24T10:23:05;8.70;;;7.35;;
61915;SDS011;47868;51.326;6.550;2022-09-24T10:25:37;9.60;;;8.32;;
61915;SDS011;47868;51.326;6.550;2022-09-24T10:28:06;10.05;;;7.55;;
61915;SDS011;47868;51.326;6.550;2022-09-24T10:33:23;8.45;;;7.63;;
61915;SDS011;47868;51.326;6.550;2022-09-24T10:35:49;8.00;;;7.20;;
61915;SDS011;47868;51.326;6.550;2022-09-24T10:38:16;8.45;;;7.65;;
61915;SDS011;47868;51.326;6.550;2022-09-24T10:40:44;10.40;;;7.88;;
61915;SDS011;47868;51.326;6.550;2022-09-24T10:43:14;12.85;;;7.95;;
61915;SDS011;47868;51.326;6.550;2022-09-24T10:46:06;8.27;;;7.07;;
61915;SDS011;47868;51.326;6.550;2022-09-24T10:48:58;8.77;;;7.88;;
61915;SDS011;47868;51.326;6.550;2022-09-24T10:54:24;8.80;;;7.40;;
61915;SDS011;47868;51.326;6.550;2022-09-24T10:57:15;8.50;;;7.60;;
61915;SDS011;47868;51.326;6.550;2022-09-24T11:00:13;8.60;;;7.28;;
61915;SDS011;47868;51.326;6.550;2022-09-24T11:06:00;13.23;;;8.10;;
61915;SDS011;47868;51.326;6.550;2022-09-24T11:11:12;11.27;;;7.45;;
61915;SDS011;47868;51.326;6.550;2022-09-24T11:16:50;11.05;;;7.47;;
61915;SDS011;47868;51.326;6.550;2022-09-24T11:19:49;14.75;;;6.82;;
61915;SDS011;47868;51.326;6.550;2022-09-24T11:30:21;10.40;;;8.27;;
61915;SDS011;47868;51.326;6.550;2022-09-24T11:32:53;11.90;;;8.07;;
61915;SDS011;47868;51.326;6.550;2022-09-24T11:46:44;10.57;;;6.78;;
61915;SDS011;47868;51.326;6.550;2022-09-24T11:49:27;7.25;;;6.53;;
61915;SDS011;47868;51.326;6.550;2022-09-24T11:52:13;8.95;;;6.40;;
61915;SDS011;47868;51.326;6.550;2022-09-24T11:57:35;7.70;;;6.80;;
61915;SDS011;47868;51.326;6.550;2022-09-24T12:00:10;7.80;;;6.75;;
61915;SDS011;47868;51.326;6.550;2022-09-24T12:05:25;7.10;;;6.40;;
61915;SDS011;47868;51.326;6.550;2022-09-24T12:08:02;7.10;;;6.30;;
61915;SDS011;47868;51.326;6.550;2022-09-24T12:11:17;7.38;;;6.45;;
61915;SDS011;47868;51.326;6.550;2022-09-24T12:13:54;6.72;;;6.05;;
61915;SDS011;47868;51.326;6.550;2022-09-24T12:16:50;7.35;;;5.68;;
61915;SDS011;47868;51.326;6.550;2022-09-24T12:19:21;7.80;;;6.68;;
61915;SDS011;47868;51.326;6.550;2022-09-24T12:21:49;7.20;;;6.50;;
61915;SDS011;47868;51.326;6.550;2022-09-24T12:26:48;7.97;;;7.22;;
61915;SDS011;47868;51.326;6.550;2022-09-24T12:32:16;7.38;;;6.63;;
61915;SDS011;47868;51.326;6.550;2022-09-24T12:43:23;8.73;;;7.78;;
61915;SDS011;47868;51.326;6.550;2022-09-24T12:46:00;10.50;;;7.50;;
61915;SDS011;47868;51.326;6.550;2022-09-24T12:48:29;8.25;;;7.45;;
61915;SDS011;47868;51.326;6.550;2022-09-24T12:51:01;9.88;;;7.07;;
61915;SDS011;47868;51.326;6.550;2022-09-24T12:53:34;9.57;;;7.32;;
61915;SDS011;47868;51.326;6.550;2022-09-24T12:56:03;8.60;;;7.45;;
61915;SDS011;47868;51.326;6.550;2022-09-24T13:01:06;9.35;;;6.60;;
61915;SDS011;47868;51.326;6.550;2022-09-24T13:03:38;8.07;;;7.28;;
61915;SDS011;47868;51.326;6.550;2022-09-24T13:14:53;7.78;;;7.07;;
61915;SDS011;47868;51.326;6.550;2022-09-24T13:17:32;8.82;;;7.93;;
61915;SDS011;47868;51.326;6.550;2022-09-24T13:20:03;7.80;;;7.03;;
61915;SDS011;47868;51.326;6.550;2022-09-24T13:22:32;8.55;;;7.65;;
61915;SDS011;47868;51.326;6.550;2022-09-24T13:27:37;8.35;;;7.55;;
61915;SDS011;47868;51.326;6.550;2022-09-24T13:35:43;8.95;;;7.55;;
61915;SDS011;47868;51.326;6.550;2022-09-24T13:38:35;7.70;;;6.95;;
61915;SDS011;47868;51.326;6.550;2022-09-24T13:43:59;8.02;;;7.22;;
61915;SDS011;47868;51.326;6.550;2022-09-24T13:46:28;9.35;;;8.20;;
61915;SDS011;47868;51.326;6.550;2022-09-24T13:48:57;8.68;;;7.63;;
61915;SDS011;47868;51.326;6.550;2022-09-24T13:51:32;8.68;;;7.78;;
61915;SDS011;47868;51.326;6.550;2022-09-24T13:54:04;10.77;;;8.55;;
61915;SDS011;47868;51.326;6.550;2022-09-24T13:56:40;9.80;;;7.63;;
61915;SDS011;47868;51.326;6.550;2022-09-24T13:59:11;10.93;;;8.27;;
61915;SDS011;47868;51.326;6.550;2022-09-24T14:01:41;12.10;;;9.48;;
61915;SDS011;47868;51.326;6.550;2022-09-24T14:04:17;9.95;;;8.65;;
61915;SDS011;47868;51.326;6.550;2022-09-24T14:06:52;13.27;;;11.98;;
61915;SDS011;47868;51.326;6.550;2022-09-24T14:11:52;8.82;;;7.93;;
61915;SDS011;47868;51.326;6.550;2022-09-24T14:14:23;9.63;;;8.15;;
61915;SDS011;47868;51.326;6.550;2022-09-24T14:16:50;9.20;;;8.30;;
61915;SDS011;47868;51.326;6.550;2022-09-24T14:19:19;10.05;;;8.68;;
61915;SDS011;47868;51.326;6.550;2022-09-24T14:21:48;10.02;;;8.60;;
61915;SDS011;47868;51.326;6.550;2022-09-24T14:24:27;10.32;;;9.32;;
61915;SDS011;47868;51.326;6.550;2022-09-24T14:27:12;13.35;;;8.65;;
61915;SDS011;47868;51.326;6.550;2022-09-24T14:29:45;10.68;;;9.57;;
61915;SDS011;47868;51.326;6.550;2022-09-24T14:32:18;10.13;;;9.10;;
61915;SDS011;47868;51.326;6.550;2022-09-24T14:34:50;13.38;;;9.57;;
61915;SDS011;47868;51.326;6.550;2022-09-24T14:37:19;9.57;;;8.60;;
61915;SDS011;47868;51.326;6.550;2022-09-24T14:39:49;9.65;;;8.73;;
61915;SDS011;47868;51.326;6.550;2022-09-24T14:42:26;11.07;;;9.40;;
61915;SDS011;47868;51.326;6.550;2022-09-24T14:45:02;11.00;;;9.90;;
61915;SDS011;47868;51.326;6.550;2022-09-24T14:47:32;10.15;;;9.15;;
61915;SDS011;47868;51.326;6.550;2022-09-24T14:49:59;10.00;;;9.02;;
61915;SDS011;47868;51.326;6.550;2022-09-24T14:52:31;10.85;;;9.13;;
61915;SDS011;47868;51.326;6.550;2022-09-24T14:55:02;9.60;;;8.70;;
61915;SDS011;47868;51.326;6.550;2022-09-24T14:57:39;10.63;;;8.73;;
61915;SDS011;47868;51.326;6.550;2022-09-24T15:00:19;9.80;;;8.85;;
61915;SDS011;47868;51.326;6.550;2022-09-24T15:06:05;9.82;;;8.82;;
61915;SDS011;47868;51.326;6.550;2022-09-24T15:08:41;9.90;;;8.90;;
61915;SDS011;47868;51.326;6.550;2022-09-24T15:11:13;9.90;;;9.00;;
61915;SDS011;47868;51.326;6.550;2022-09-24T15:13:44;10.00;;;9.10;;
61915;SDS011;47868;51.326;6.550;2022-09-24T15:16:19;10.57;;;9.48;;
61915;SDS011;47868;51.326;6.550;2022-09-24T15:19:00;11.32;;;10.02;;
61915;SDS011;47868;51.326;6.550;2022-09-24T15:21:44;12.75;;;11.45;;
61915;SDS011;47868;51.326;6.550;2022-09-24T15:24:10;13.95;;;12.35;;
61915;SDS011;47868;51.326;6.550;2022-09-24T15:26:37;17.15;;;12.73;;
61915;SDS011;47868;51.326;6.550;2022-09-24T15:29:05;12.63;;;11.25;;
61915;SDS011;47868;51.326;6.550;2022-09-24T15:31:31;12.43;;;10.82;;
61915;SDS011;47868;51.326;6.550;2022-09-24T15:33:56;11.80;;;10.60;;
61915;SDS011;47868;51.326;6.550;2022-09-24T15:36:22;12.40;;;11.07;;
61915;SDS011;47868;51.326;6.550;2022-09-24T15:38:49;11.10;;;9.98;;
61915;SDS011;47868;51.326;6.550;2022-09-24T15:41:16;12.52;;;11.32;;
61915;SDS011;47868;51.326;6.550;2022-09-24T15:43:43;11.82;;;10.73;;
61915;SDS011;47868;51.326;6.550;2022-09-24T15:46:09;12.75;;;11.10;;
61915;SDS011;47868;51.326;6.550;2022-09-24T15:48:38;10.80;;;9.73;;
61915;SDS011;47868;51.326;6.550;2022-09-24T15:51:04;12.38;;;10.68;;
61915;SDS011;47868;51.326;6.550;2022-09-24T15:53:29;12.90;;;10.77;;
61915;SDS011;47868;51.326;6.550;2022-09-24T15:56:00;12.25;;;11.05;;
61915;SDS011;47868;51.326;6.550;2022-09-24T15:58:27;12.20;;;11.10;;
61915;SDS011;47868;51.326;6.550;2022-09-24T16:00:53;14.25;;;12.73;;
61915;SDS011;47868;51.326;6.550;2022-09-24T16:03:23;11.57;;;10.38;;
61915;SDS011;47868;51.326;6.550;2022-09-24T16:05:51;13.00;;;11.18;;
61915;SDS011;47868;51.326;6.550;2022-09-24T16:08:18;12.43;;;11.13;;
61915;SDS011;47868;51.326;6.550;2022-09-24T16:10:44;12.55;;;11.25;;
61915;SDS011;47868;51.326;6.550;2022-09-24T16:13:10;14.05;;;11.63;;
61915;SDS011;47868;51.326;6.550;2022-09-24T16:15:36;13.48;;;12.05;;
61915;SDS011;47868;51.326;6.550;2022-09-24T16:18:02;11.88;;;10.77;;
61915;SDS011;47868;51.326;6.550;2022-09-24T16:20:28;12.40;;;11.07;;
61915;SDS011;47868;51.326;6.550;2022-09-24T16:22:54;14.32;;;12.85;;
61915;SDS011;47868;51.326;6.550;2022-09-24T16:25:20;13.35;;;12.15;;
61915;SDS011;47868;51.326;6.550;2022-09-24T16:27:45;13.60;;;12.23;;
61915;SDS011;47868;51.326;6.550;2022-09-24T16:30:11;14.77;;;13.23;;
61915;SDS011;47868;51.326;6.550;2022-09-24T16:32:37;13.93;;;12.57;;
61915;SDS011;47868;51.326;6.550;2022-09-24T16:35:03;14.65;;;13.07;;
61915;SDS011;47868;51.326;6.550;2022-09-24T16:37:30;14.38;;;13.00;;
61915;SDS011;47868;51.326;6.550;2022-09-24T16:39:56;16.05;;;13.90;;
61915;SDS011;47868;51.326;6.550;2022-09-24T16:42:21;15.35;;;13.85;;
61915;SDS011;47868;51.326;6.550;2022-09-24T16:44:50;16.48;;;14.77;;
61915;SDS011;47868;51.326;6.550;2022-09-24T16:47:16;17.13;;;15.20;;